createdAt,value
2019-05-09T00:01:25.039Z,18.74
2019-05-09T00:03:56.399Z,17.66
2019-05-09T00:06:25.700Z,17.76
2019-05-09T00:08:54.994Z,17.61
2019-05-09T00:11:24.721Z,18.00
2019-05-09T00:13:54.064Z,17.78
2019-05-09T00:16:23.702Z,17.70
2019-05-09T00:18:54.068Z,17.32
2019-05-09T00:21:37.982Z,17.43
2019-05-09T00:24:07.359Z,17.87
2019-05-09T00:26:36.674Z,17.45
2019-05-09T00:29:10.673Z,17.31
2019-05-09T00:31:57.651Z,17.39
2019-05-09T00:34:44.161Z,17.25
2019-05-09T00:37:13.671Z,17.59
2019-05-09T00:39:43.519Z,18.03
2019-05-09T00:42:13.685Z,18.13
2019-05-09T00:44:45.302Z,18.26
2019-05-09T00:47:24.017Z,18.10
2019-05-09T00:49:54.148Z,17.89
2019-05-09T00:52:23.573Z,18.05
2019-05-09T00:54:53.200Z,18.07
2019-05-09T00:57:34.912Z,18.11
2019-05-09T01:00:08.504Z,17.55
2019-05-09T01:02:37.837Z,18.47
2019-05-09T01:05:07.253Z,17.82
2019-05-09T01:07:36.548Z,18.44
2019-05-09T01:10:06.255Z,18.19
2019-05-09T01:12:35.593Z,18.52
2019-05-09T01:15:05.476Z,18.07
2019-05-09T01:17:34.778Z,18.27
2019-05-09T01:20:04.422Z,17.76
2019-05-09T01:22:33.739Z,17.63
2019-05-09T01:25:04.149Z,18.27
2019-05-09T01:27:34.051Z,17.70
2019-05-09T01:30:04.577Z,17.75
2019-05-09T01:32:59.127Z,18.20
2019-05-09T01:35:28.399Z,17.91
2019-05-09T01:37:57.633Z,18.32
2019-05-09T01:40:26.939Z,17.28
2019-05-09T01:42:56.251Z,17.61
2019-05-09T01:45:25.543Z,17.25
2019-05-09T01:47:54.807Z,16.65
2019-05-09T01:50:24.114Z,17.15
2019-05-09T01:52:53.538Z,17.24
2019-05-09T01:55:25.476Z,17.44
2019-05-09T01:57:54.814Z,17.38
2019-05-09T02:00:24.097Z,17.07
2019-05-09T02:02:54.173Z,17.08
2019-05-09T02:05:24.150Z,17.16
2019-05-09T02:07:54.215Z,17.27
2019-05-09T02:10:23.582Z,17.50
2019-05-09T02:12:53.785Z,17.66
2019-05-09T02:15:35.184Z,17.27
2019-05-09T02:18:16.512Z,17.36
2019-05-09T02:20:45.835Z,16.80
2019-05-09T02:23:15.120Z,17.59
2019-05-09T02:25:44.453Z,17.48
2019-05-09T02:28:14.240Z,17.27
2019-05-09T02:30:45.013Z,17.44
2019-05-09T02:33:14.812Z,17.31
2019-05-09T02:35:56.387Z,17.59
2019-05-09T02:38:15.224Z,17.10
2019-05-09T02:40:44.546Z,17.39
2019-05-09T02:43:13.942Z,16.79
2019-05-09T02:45:52.820Z,17.03
2019-05-09T02:48:21.164Z,17.38
2019-05-09T02:50:50.458Z,16.99
2019-05-09T02:53:19.756Z,16.80
2019-05-09T02:55:49.674Z,16.96
2019-05-09T02:58:20.839Z,17.22
2019-05-09T03:01:00.179Z,16.90
2019-05-09T03:03:32.436Z,16.64
2019-05-09T03:06:01.811Z,16.62
2019-05-09T03:08:31.838Z,16.47
2019-05-09T03:11:01.115Z,16.42
2019-05-09T03:13:30.452Z,16.71
2019-05-09T03:16:08.334Z,16.29
2019-05-09T03:18:38.874Z,16.70
2019-05-09T03:21:15.092Z,16.54
2019-05-09T03:23:44.378Z,16.81
2019-05-09T03:26:19.327Z,16.96
2019-05-09T03:29:09.895Z,17.04
2019-05-09T03:31:39.801Z,16.80
2019-05-09T03:34:09.747Z,16.96
2019-05-09T03:36:39.263Z,16.68
2019-05-09T03:39:08.747Z,16.69
2019-05-09T03:41:39.542Z,16.89
2019-05-09T03:44:09.059Z,16.06
2019-05-09T03:46:48.561Z,16.08
2019-05-09T03:49:18.241Z,16.13
2019-05-09T03:51:48.211Z,16.37
2019-05-09T03:54:18.359Z,16.25
2019-05-09T03:56:52.559Z,16.27
2019-05-09T03:59:21.838Z,16.74
2019-05-09T04:01:51.090Z,16.46
2019-05-09T04:04:20.512Z,16.31
2019-05-09T04:06:49.725Z,16.15
2019-05-09T04:09:18.982Z,16.24
2019-05-09T04:11:48.641Z,16.24
2019-05-09T04:14:21.676Z,16.56
2019-05-09T04:16:51.057Z,17.17
2019-05-09T04:19:20.322Z,16.56
2019-05-09T04:21:49.601Z,16.69
2019-05-09T04:24:18.884Z,16.64
2019-05-09T04:26:53.570Z,16.95
2019-05-09T04:29:22.884Z,16.44
2019-05-09T04:31:52.104Z,16.85
2019-05-09T04:34:21.396Z,16.87
2019-05-09T04:36:50.702Z,16.64
2019-05-09T04:39:23.593Z,16.98
2019-05-09T04:41:54.980Z,16.25
2019-05-09T04:44:37.462Z,16.51
2019-05-09T04:47:08.773Z,16.40
2019-05-09T04:49:40.927Z,16.50
2019-05-09T04:52:08.975Z,16.50
2019-05-09T04:54:38.612Z,16.74
2019-05-09T04:57:08.084Z,16.69
2019-05-09T04:59:37.538Z,16.62
2019-05-09T05:02:18.886Z,16.47
2019-05-09T05:04:48.138Z,16.78
2019-05-09T05:10:58.207Z,16.96
2019-05-09T05:13:29.725Z,17.15
2019-05-09T05:15:58.904Z,17.85
2019-05-09T05:18:28.528Z,17.63
2019-05-09T05:20:58.395Z,18.26
2019-05-09T05:23:34.214Z,17.98
2019-05-09T05:26:03.535Z,18.35
2019-05-09T05:28:34.120Z,18.21
2019-05-09T05:31:03.378Z,17.45
2019-05-09T05:33:39.069Z,17.90
2019-05-09T05:36:09.411Z,18.23
2019-05-09T05:38:38.784Z,18.09
2019-05-09T05:41:08.125Z,18.37
2019-05-09T05:43:44.031Z,18.71
2019-05-09T05:46:28.670Z,18.50
2019-05-09T05:48:58.162Z,18.83
2019-05-09T05:51:27.754Z,18.38
2019-05-09T05:53:57.513Z,18.38
2019-05-09T05:56:28.054Z,18.72
2019-05-09T05:58:58.055Z,18.66
2019-05-09T06:01:29.321Z,18.59
2019-05-09T06:03:58.810Z,18.86
2019-05-09T06:06:28.183Z,18.95
2019-05-09T06:08:58.057Z,18.60
2019-05-09T06:11:30.479Z,19.04
2019-05-09T06:14:08.079Z,18.62
2019-05-09T06:16:30.742Z,18.76
2019-05-09T06:19:00.019Z,18.76
2019-05-09T06:21:32.509Z,18.92
2019-05-09T06:24:01.785Z,19.02
2019-05-09T06:26:31.061Z,18.57
2019-05-09T06:29:00.359Z,18.98
2019-05-09T06:31:29.627Z,18.32
2019-05-09T06:33:58.886Z,19.32
2019-05-09T06:36:28.528Z,19.28
2019-05-09T06:38:58.729Z,19.51
2019-05-09T06:41:28.763Z,19.39
2019-05-09T06:44:20.437Z,18.53
2019-05-09T06:47:09.883Z,19.11
2019-05-09T06:49:41.580Z,19.87
2019-05-09T06:52:10.926Z,19.77
2019-05-09T06:54:41.680Z,19.36
2019-05-09T06:57:11.234Z,18.86
2019-05-09T06:59:40.491Z,19.32
2019-05-09T07:02:17.676Z,19.29
2019-05-09T07:04:50.570Z,19.07
2019-05-09T07:07:31.421Z,19.23
2019-05-09T07:10:28.278Z,19.56
2019-05-09T07:12:58.466Z,20.21
2019-05-09T07:15:28.375Z,20.08
2019-05-09T07:17:57.718Z,20.25
2019-05-09T07:20:28.430Z,20.22
2019-05-09T07:22:58.461Z,20.36
2019-05-09T07:25:37.670Z,20.05
2019-05-09T07:28:07.636Z,20.10
2019-05-09T07:31:11.786Z,19.79
2019-05-09T07:33:53.903Z,20.04
2019-05-09T07:36:23.304Z,19.94
2019-05-09T07:38:52.643Z,20.04
2019-05-09T07:41:21.911Z,20.28
2019-05-09T07:43:51.196Z,20.25
2019-05-09T07:46:28.796Z,20.27
2019-05-09T07:48:59.012Z,20.25
2019-05-09T07:51:28.286Z,20.34
2019-05-09T07:54:00.633Z,20.22
2019-05-09T07:56:30.051Z,20.23
2019-05-09T07:58:59.333Z,20.19
2019-05-09T08:01:28.638Z,20.68
2019-05-09T08:03:58.583Z,20.59
2019-05-09T08:06:28.798Z,20.47
2019-05-09T08:08:58.467Z,21.04
2019-05-09T08:11:30.487Z,21.34
2019-05-09T08:13:59.232Z,21.45
2019-05-09T08:16:31.460Z,21.38
2019-05-09T08:19:00.778Z,21.85
2019-05-09T08:21:30.093Z,21.72
2019-05-09T08:23:59.378Z,21.91
2019-05-09T08:26:30.129Z,21.92
2019-05-09T08:28:59.712Z,23.26
2019-05-09T08:31:29.056Z,22.61
2019-05-09T08:33:59.405Z,22.64
2019-05-09T08:36:28.983Z,22.84
2019-05-09T08:38:58.985Z,22.24
2019-05-09T08:41:29.302Z,22.16
2019-05-09T08:43:58.801Z,22.94
2019-05-09T08:46:28.744Z,23.14
2019-05-09T08:48:58.117Z,23.29
2019-05-09T08:51:38.524Z,23.22
2019-05-09T08:54:06.291Z,22.27
2019-05-09T08:56:35.586Z,22.95
2019-05-09T08:59:04.893Z,23.63
2019-05-09T09:01:50.523Z,22.34
2019-05-09T09:04:05.250Z,23.52
2019-05-09T09:06:34.549Z,24.08
2019-05-09T09:09:05.043Z,23.84
2019-05-09T09:11:34.309Z,24.02
2019-05-09T09:14:03.567Z,23.28
2019-05-09T09:16:32.851Z,23.90
2019-05-09T09:19:02.124Z,23.95
2019-05-09T09:21:34.144Z,24.22
2019-05-09T09:24:03.418Z,23.97
2019-05-09T09:26:32.760Z,23.82
2019-05-09T09:29:02.003Z,24.88
2019-05-09T09:31:31.380Z,25.34
2019-05-09T09:34:00.661Z,24.66
2019-05-09T09:36:29.994Z,24.18
2019-05-09T09:39:02.619Z,23.91
2019-05-09T09:41:30.313Z,23.51
2019-05-09T09:43:59.602Z,24.92
2019-05-09T09:46:28.976Z,24.74
2019-05-09T09:48:58.769Z,23.93
2019-05-09T09:51:28.306Z,24.37
2019-05-09T09:53:58.394Z,23.62
2019-05-09T09:56:28.331Z,23.99
2019-05-09T09:59:11.677Z,24.97
2019-05-09T10:01:42.550Z,25.40
2019-05-09T10:04:22.858Z,24.73
2019-05-09T10:06:47.949Z,24.80
2019-05-09T10:09:17.489Z,25.04
2019-05-09T10:11:48.319Z,24.59
2019-05-09T10:14:22.902Z,25.43
2019-05-09T10:17:10.883Z,25.06
2019-05-09T10:19:48.282Z,25.34
2019-05-09T10:22:23.434Z,25.45
2019-05-09T10:24:51.236Z,25.30
2019-05-09T10:27:20.458Z,25.09
2019-05-09T10:29:49.712Z,24.89
2019-05-09T10:32:18.982Z,25.37
2019-05-09T10:34:48.999Z,25.42
2019-05-09T10:37:18.786Z,25.36
2019-05-09T10:39:49.010Z,24.91
2019-05-09T10:42:37.949Z,25.31
2019-05-09T10:45:32.427Z,24.89
2019-05-09T10:48:01.729Z,25.00
2019-05-09T10:50:34.034Z,24.90
2019-05-09T10:53:02.192Z,24.73
2019-05-09T10:55:31.579Z,25.27
2019-05-09T10:58:02.385Z,24.88
2019-05-09T11:00:31.933Z,25.26
2019-05-09T11:03:01.315Z,24.49
2019-05-09T11:05:30.607Z,25.35
2019-05-09T11:07:59.887Z,25.68
2019-05-09T11:10:32.523Z,25.67
2019-05-09T11:13:00.197Z,25.49
2019-05-09T11:15:29.554Z,25.66
2019-05-09T11:17:58.986Z,26.45
2019-05-09T11:20:28.591Z,26.31
2019-05-09T11:22:58.339Z,25.09
2019-05-09T11:25:27.965Z,25.70
2019-05-09T11:28:09.239Z,26.19
2019-05-09T11:30:28.330Z,25.88
2019-05-09T11:32:59.655Z,24.49
2019-05-09T11:35:28.671Z,24.77
2019-05-09T11:37:58.691Z,25.31
2019-05-09T11:40:28.358Z,25.45
2019-05-09T11:42:57.591Z,25.03
2019-05-09T11:45:28.085Z,25.73
2019-05-09T11:47:58.226Z,24.88
2019-05-09T11:50:27.816Z,24.98
2019-05-09T11:52:59.784Z,24.46
2019-05-09T11:55:35.398Z,24.95
2019-05-09T11:57:59.333Z,24.39
2019-05-09T12:00:29.462Z,24.84
2019-05-09T12:02:59.123Z,24.97
2019-05-09T12:05:28.945Z,24.20
2019-05-09T12:07:58.434Z,25.54
2019-05-09T12:10:28.554Z,24.85
2019-05-09T12:12:58.158Z,24.55
2019-05-09T12:15:29.066Z,25.03
2019-05-09T12:18:04.067Z,25.28
2019-05-09T12:20:29.599Z,25.51
2019-05-09T12:22:59.021Z,25.33
2019-05-09T12:25:28.531Z,25.41
2019-05-09T12:27:59.471Z,25.13
2019-05-09T12:30:28.750Z,25.35
2019-05-09T12:32:59.006Z,25.61
2019-05-09T12:35:28.402Z,25.97
2019-05-09T12:37:57.718Z,25.31
2019-05-09T12:40:27.072Z,24.51
2019-05-09T12:42:56.357Z,24.75
2019-05-09T12:45:25.664Z,25.62
2019-05-09T12:48:07.394Z,25.92
2019-05-09T12:50:25.978Z,24.90
2019-05-09T12:52:55.319Z,25.48
2019-05-09T12:55:24.569Z,26.36
2019-05-09T12:57:53.857Z,26.10
2019-05-09T13:00:23.470Z,26.29
2019-05-09T13:02:52.769Z,25.67
2019-05-09T13:05:22.068Z,25.93
2019-05-09T13:07:51.355Z,26.39
2019-05-09T13:10:20.618Z,26.77
2019-05-09T13:12:49.958Z,26.46
2019-05-09T13:15:21.321Z,26.74
2019-05-09T13:17:51.365Z,26.09
2019-05-09T13:20:20.692Z,26.46
2019-05-09T13:22:49.988Z,25.79
2019-05-09T13:25:19.428Z,26.56
2019-05-09T13:27:52.519Z,26.64
2019-05-09T13:30:21.324Z,26.00
2019-05-09T13:32:50.632Z,26.04
2019-05-09T13:35:20.220Z,26.37
2019-05-09T13:37:49.597Z,26.76
2019-05-09T13:40:19.238Z,26.84
2019-05-09T13:42:50.178Z,26.59
2019-05-09T13:45:19.627Z,26.53
2019-05-09T13:47:49.657Z,26.34
2019-05-09T13:50:19.105Z,27.32
2019-05-09T13:52:49.639Z,26.61
2019-05-09T13:55:19.020Z,26.42
2019-05-09T13:57:48.858Z,26.53
2019-05-09T14:00:18.854Z,27.06
2019-05-09T14:02:48.752Z,27.55
2019-05-09T14:05:19.203Z,26.99
2019-05-09T14:07:53.928Z,26.45
2019-05-09T14:10:19.930Z,25.44
2019-05-09T14:13:04.823Z,25.69
2019-05-09T14:15:20.476Z,26.81
2019-05-09T14:17:53.660Z,26.18
2019-05-09T14:20:20.922Z,25.93
2019-05-09T14:22:53.327Z,25.72
2019-05-09T14:25:22.869Z,25.90
2019-05-09T14:27:52.582Z,25.39
2019-05-09T14:30:21.980Z,25.75
2019-05-09T14:32:51.310Z,25.47
2019-05-09T14:35:20.650Z,25.98
2019-05-09T14:37:49.968Z,25.58
2019-05-09T14:40:19.264Z,25.28
2019-05-09T14:42:49.471Z,25.21
2019-05-09T14:45:19.018Z,25.70
2019-05-09T14:47:48.308Z,25.60
2019-05-09T14:50:18.210Z,25.44
2019-05-09T14:52:50.439Z,26.07
2019-05-09T14:55:18.667Z,26.59
2019-05-09T14:57:48.180Z,27.15
2019-05-09T15:00:18.833Z,27.07
2019-05-09T15:02:48.975Z,27.16
2019-05-09T15:05:18.967Z,26.92
2019-05-09T15:07:48.523Z,26.78
2019-05-09T15:10:18.723Z,25.82
2019-05-09T15:12:48.768Z,26.29
2019-05-09T15:15:18.725Z,25.56
2019-05-09T15:17:49.111Z,25.32
2019-05-09T15:20:18.892Z,25.46
2019-05-09T15:22:49.847Z,25.77
2019-05-09T15:25:20.769Z,25.73
2019-05-09T15:27:50.192Z,25.51
2019-05-09T15:30:19.621Z,25.49
2019-05-09T15:32:51.789Z,26.39
2019-05-09T15:35:20.002Z,26.68
2019-05-09T15:37:49.295Z,26.08
2019-05-09T15:40:18.629Z,25.28
2019-05-09T15:42:48.147Z,25.13
2019-05-09T15:45:18.371Z,25.27
2019-05-09T15:47:48.447Z,24.88
2019-05-09T15:50:22.860Z,24.83
2019-05-09T15:52:48.958Z,25.72
2019-05-09T15:55:18.260Z,25.55
2019-05-09T15:57:48.536Z,25.43
2019-05-09T16:00:19.227Z,25.03
2019-05-09T16:02:48.891Z,25.23
2019-05-09T16:05:18.313Z,25.29
2019-05-09T16:07:48.240Z,25.63
2019-05-09T16:10:18.093Z,25.17
2019-05-09T16:12:48.708Z,24.73
2019-05-09T16:15:19.056Z,24.76
2019-05-09T16:17:48.757Z,24.92
2019-05-09T16:20:36.035Z,24.66
2019-05-09T16:22:51.392Z,24.97
2019-05-09T16:25:20.730Z,24.64
2019-05-09T16:27:50.110Z,24.67
2019-05-09T16:30:19.698Z,25.30
2019-05-09T16:32:48.985Z,25.26
2019-05-09T16:35:18.408Z,25.15
2019-05-09T16:37:58.293Z,24.81
2019-05-09T16:40:18.819Z,24.92
2019-05-09T16:42:48.113Z,25.00
2019-05-09T16:45:18.306Z,25.03
2019-05-09T16:47:48.577Z,24.60
2019-05-09T16:50:18.401Z,24.66
2019-05-09T16:52:51.374Z,24.96
2019-05-09T16:55:30.970Z,25.25
2019-05-09T16:57:57.372Z,24.95
2019-05-09T17:00:47.845Z,24.56
2019-05-09T17:03:17.919Z,24.89
2019-05-09T17:05:49.880Z,24.46
2019-05-09T17:08:19.316Z,24.15
2019-05-09T17:10:48.867Z,24.07
2019-05-09T17:13:18.650Z,24.14
2019-05-09T17:15:48.099Z,24.40
2019-05-09T17:18:18.862Z,24.21
2019-05-09T17:21:14.616Z,24.20
2019-05-09T17:23:30.335Z,24.18
2019-05-09T17:25:59.712Z,23.96
2019-05-09T17:28:29.030Z,23.97
2019-05-09T17:30:58.473Z,24.11
2019-05-09T17:33:28.765Z,24.02
2019-05-09T17:35:58.350Z,23.61
2019-05-09T17:38:28.001Z,23.71
2019-05-09T17:40:57.860Z,22.79
2019-05-09T17:43:27.852Z,23.08
2019-05-09T17:45:58.526Z,23.18
2019-05-09T17:48:28.808Z,23.59
2019-05-09T17:50:58.289Z,23.70
2019-05-09T17:53:29.232Z,23.73
2019-05-09T17:55:58.842Z,23.76
2019-05-09T17:58:32.909Z,23.90
2019-05-09T18:00:59.348Z,23.82
2019-05-09T18:03:29.314Z,23.76
2019-05-09T18:05:58.698Z,23.93
2019-05-09T18:08:28.442Z,24.07
2019-05-09T18:10:58.482Z,23.81
2019-05-09T18:13:30.444Z,23.86
2019-05-09T18:15:59.320Z,24.06
2019-05-09T18:18:28.673Z,23.82
2019-05-09T18:20:58.225Z,23.38
2019-05-09T18:23:28.364Z,23.13
2019-05-09T18:25:58.519Z,23.50
2019-05-09T18:28:29.250Z,23.19
2019-05-09T18:30:59.018Z,23.10
2019-05-09T18:33:38.014Z,23.09
2019-05-09T18:36:07.173Z,23.29
2019-05-09T18:38:38.645Z,23.26
2019-05-09T18:41:10.165Z,23.07
2019-05-09T18:43:38.848Z,22.86
2019-05-09T18:46:08.437Z,23.15
2019-05-09T18:48:38.391Z,22.96
2019-05-09T18:51:07.742Z,22.49
2019-05-09T18:53:37.128Z,22.78
2019-05-09T18:56:06.475Z,22.83
2019-05-09T18:58:36.250Z,22.46
2019-05-09T19:01:05.868Z,22.36
2019-05-09T19:03:35.195Z,22.24
2019-05-09T19:06:04.714Z,22.47
2019-05-09T19:08:34.143Z,21.75
2019-05-09T19:11:03.539Z,22.20
2019-05-09T19:13:32.850Z,22.07
2019-05-09T19:16:27.186Z,22.32
2019-05-09T19:19:15.479Z,22.09
2019-05-09T19:21:51.439Z,22.02
2019-05-09T19:24:20.850Z,21.78
2019-05-09T19:26:50.180Z,22.18
2019-05-09T19:29:19.488Z,21.51
2019-05-09T19:31:48.905Z,20.95
2019-05-09T19:34:18.204Z,20.79
2019-05-09T19:36:47.543Z,19.96
2019-05-09T19:39:16.879Z,19.87
2019-05-09T19:41:46.201Z,20.44
2019-05-09T19:44:15.572Z,20.50
2019-05-09T19:46:44.962Z,20.86
2019-05-09T19:49:46.221Z,20.68
2019-05-09T20:14:29.548Z,20.57
2019-05-09T20:17:01.861Z,20.24
2019-05-09T20:19:31.581Z,19.88
2019-05-09T20:25:53.334Z,20.10
2019-05-09T20:28:49.893Z,20.24
2019-05-09T20:31:20.375Z,19.75
2019-05-09T20:33:50.128Z,20.14
2019-05-09T20:36:21.201Z,19.66
2019-05-09T20:38:50.821Z,19.08
2019-05-09T20:41:20.401Z,19.47
2019-05-09T20:43:54.838Z,19.42
2019-05-09T20:46:24.028Z,19.43
2019-05-09T20:48:53.609Z,19.73
2019-05-09T20:51:23.105Z,20.01
2019-05-09T21:01:13.302Z,19.70
2019-05-09T21:03:57.708Z,19.73
2019-05-09T21:06:14.099Z,19.50
2019-05-09T21:08:43.624Z,19.62
2019-05-09T21:11:13.224Z,19.19
2019-05-09T21:13:48.314Z,19.60
2019-05-09T21:16:14.444Z,19.73
2019-05-09T21:18:43.988Z,19.94
2019-05-09T21:21:13.508Z,19.21
2019-05-09T21:23:43.156Z,19.65
2019-05-09T21:26:12.705Z,19.43
2019-05-09T21:28:42.286Z,19.15
2019-05-09T21:31:11.819Z,19.63
2019-05-09T21:33:41.350Z,19.71
2019-05-09T21:36:10.746Z,19.81
2019-05-09T21:38:40.101Z,19.08
2019-05-09T21:41:09.502Z,19.31
2019-05-09T21:43:38.898Z,19.55
2019-05-09T21:46:08.280Z,19.58
2019-05-09T21:48:38.584Z,18.98
2019-05-09T21:51:08.098Z,19.45
2019-05-09T21:53:40.817Z,19.28
2019-05-09T21:56:08.681Z,19.19
2019-05-09T21:58:38.113Z,19.13
2019-05-09T22:01:09.026Z,19.36
2019-05-09T22:03:38.412Z,19.32
2019-05-09T22:06:07.826Z,19.00
2019-05-09T22:08:37.207Z,18.82
2019-05-09T22:11:06.601Z,18.84
2019-05-09T22:13:35.991Z,19.22
2019-05-09T22:16:06.306Z,18.70
2019-05-09T22:18:35.584Z,19.15
2019-05-09T22:21:04.981Z,19.32
2019-05-09T22:23:34.291Z,18.60
2019-05-09T22:26:03.571Z,18.44
2019-05-09T22:28:32.867Z,18.85
2019-05-09T22:31:02.256Z,19.07
2019-05-09T22:33:31.628Z,19.04
2019-05-09T22:36:01.047Z,18.57
2019-05-09T22:38:32.260Z,18.81
2019-05-09T22:41:01.744Z,18.50
2019-05-09T22:43:31.140Z,18.87
2019-05-09T22:46:00.423Z,18.64
2019-05-09T22:48:29.712Z,18.89
2019-05-09T22:50:59.014Z,19.03
2019-05-09T22:53:28.299Z,19.27
2019-05-09T22:55:57.568Z,18.52
2019-05-09T22:58:26.902Z,19.10
2019-05-09T23:00:56.166Z,19.13
2019-05-09T23:03:25.521Z,18.90
2019-05-09T23:05:54.848Z,19.23
2019-05-09T23:08:24.173Z,19.17
2019-05-09T23:10:53.684Z,19.08
2019-05-09T23:13:23.141Z,19.14
2019-05-09T23:15:52.453Z,18.74
2019-05-09T23:18:21.754Z,18.73
2019-05-09T23:20:54.059Z,18.58
2019-05-09T23:23:40.307Z,18.83
2019-05-09T23:26:10.580Z,18.66
2019-05-09T23:28:39.886Z,18.41
2019-05-09T23:31:12.606Z,18.73
2019-05-09T23:33:41.883Z,17.97
2019-05-09T23:36:11.136Z,18.20
2019-05-09T23:38:58.368Z,18.30
2019-05-09T23:41:27.689Z,18.27
2019-05-09T23:43:57.016Z,18.21
2019-05-09T23:46:26.385Z,18.39
2019-05-09T23:48:55.637Z,18.58
2019-05-09T23:51:27.663Z,18.01
2019-05-09T23:53:55.958Z,18.08
2019-05-09T23:56:43.212Z,17.95
2019-05-09T23:59:30.512Z,17.84
